St. Petersburg, FL

2:53 PM EDT on September 27, 2016 (GMT -0400)
Disston Heights KI4TWQ | | Change Station

Elev 65 ft 27.80 °N, 82.70 °W | Updated 1 second ago

Scattered Clouds
Scattered Clouds
91.6 °F
Feels Like 106 °F
N
3.6
Wind Variable Wind from West
Gusts 6.0 mph

Today
High -- | Low -- °F
--% Chance of Precip.
Yesterday
High -- | Low -- °F
Precip. -- in
Pressure 29.91 in
Visibility 10.0 miles
Clouds Scattered Clouds 4000 ft
Heat Index 106 °F
Dew Point 77 °F
Humidity 63%
Rainfall 0.00 in
Snow Depth Not available.
7:21 AM 7:20 PM
Waning Crescent, 10% visible
METAR KSPG 271753Z 29006KT 10SM SCT040 30/21 A2991 RMK AO2 SLP129 T03000211 10306 20256 58013
Pressure 29.91 in
Visibility 10.0 miles
Clouds Scattered Clouds 4000 ft
Heat Index 106 °F
Dew Point 77 °F
Humidity 63%
Rainfall 0.00 in
Snow Depth Not available.
7:21 AM 7:20 PM
Waning Crescent, 10% visible
METAR KSPG 271753Z 29006KT 10SM SCT040 30/21 A2991 RMK AO2 SLP129 T03000211 10306 20256 58013

10-Day Weather Forecast

Almanac

Astronomy

Sep. 27, 2016 Rise Set
Actual Time
Civil Twilight
Nautical Twilight
Astronomical Twilight
Moon
Length of Visible Light
Length of Day
Tomorrow will be .
, % of the Moon is Illuminated

Today's Extremes

State Highs State Lows

Community

WunderPhotos

Upload Photos

1,942,156 photos uploaded!

WunderBlog® & News

Nearby

Air Quality

  Air Quality AQ Index Pollutant
Not available.

Snow Depth

Station Depth Elevation

Earthquake Activity

City Distance Mag. Time & Date
Minimum magnitude displayed is 2.5.

Coastal Water Temperatures

Place Temperature

Stations

Nearby Weather Stations

Station Location Temp. Windchill Dew Point Humidity Wind Precip. Elev Updated Type
                   

Watches & Warnings

There are currently no watches in effect.